Time;durP1;ratioP1;P1;durP2;ratioP2;P2;SDS_P1;SDS_P2;PMS_P1;PMS_P2;Temp;Humidity;BMP_temperature;BMP_pressure;BME280_temperature;BME280_humidity;BME280_pressure;Samples;Min_cycle;Max_cycle;Signal;HPM_P1;HPM_P2
2021/12/18 00:01:24;;;;;;;22.42;7.55;;;8.70;99.90;;;;;;5009088;28;20026;-87
2021/12/18 00:03:50;;;;;;;18.85;6.65;;;8.70;99.90;;;;;;5012811;28;20157;-86
2021/12/18 00:06:16;;;;;;;16.63;7.15;;;8.70;99.90;;;;;;5011634;28;20113;-87
2021/12/18 00:08:42;;;;;;;18.92;6.25;;;8.70;99.90;;;;;;5010866;28;20386;-88
2021/12/18 00:11:09;;;;;;;16.88;6.70;;;8.70;99.90;;;;;;5012774;28;20030;-88
2021/12/18 00:13:35;;;;;;;19.30;7.25;;;8.70;99.90;;;;;;5013976;28;20030;-88
2021/12/18 00:16:02;;;;;;;21.05;7.30;;;8.70;99.90;;;;;;5007162;28;20028;-88
2021/12/18 00:18:28;;;;;;;19.77;7.05;;;8.70;99.90;;;;;;5012735;28;20097;-87
2021/12/18 00:20:54;;;;;;;19.33;7.35;;;8.60;99.90;;;;;;5011077;28;20093;-87
2021/12/18 00:23:19;;;;;;;23.17;7.55;;;8.70;99.90;;;;;;5011403;28;20034;-85
2021/12/18 00:25:45;;;;;;;18.38;6.88;;;8.60;99.90;;;;;;5011598;28;20096;-85
2021/12/18 00:28:11;;;;;;;18.77;6.80;;;8.60;99.90;;;;;;5012857;28;20049;-85
2021/12/18 00:30:37;;;;;;;19.27;7.03;;;8.70;99.90;;;;;;5011098;28;20030;-87
2021/12/18 00:33:04;;;;;;;18.65;6.90;;;8.60;99.90;;;;;;5011912;28;20426;-88
2021/12/18 00:35:30;;;;;;;19.08;7.47;;;8.70;99.90;;;;;;5010729;28;20057;-87
2021/12/18 00:37:55;;;;;;;19.40;7.50;;;8.70;99.90;;;;;;5012009;28;20026;-88
2021/12/18 00:40:27;;;;;;;25.42;7.50;;;8.70;99.90;;;;;;5011687;28;20041;-88
2021/12/18 00:43:19;;;;;;;20.77;7.97;;;8.60;99.90;;;;;;5010318;28;20042;-88
2021/12/18 00:45:45;;;;;;;18.88;6.80;;;8.60;99.90;;;;;;5010837;28;20070;-87
2021/12/18 00:48:11;;;;;;;19.17;6.78;;;8.60;99.90;;;;;;5011978;28;20061;-88
2021/12/18 00:50:36;;;;;;;24.25;6.88;;;8.60;99.90;;;;;;5012350;28;20034;-88
2021/12/18 00:53:01;;;;;;;21.42;7.30;;;8.60;99.90;;;;;;5011217;28;20022;-88
2021/12/18 00:55:27;;;;;;;16.13;6.50;;;8.60;99.90;;;;;;5012072;28;20030;-88
2021/12/18 00:57:53;;;;;;;23.98;7.22;;;8.60;99.90;;;;;;5011597;28;20532;-88
2021/12/18 01:00:24;;;;;;;24.80;7.10;;;8.60;99.90;;;;;;5011283;28;20037;-88
2021/12/18 01:02:57;;;;;;;23.58;7.97;;;8.60;99.90;;;;;;5010841;28;20038;-87
2021/12/18 01:05:24;;;;;;;19.70;7.30;;;8.60;99.90;;;;;;5005982;28;20023;-87
2021/12/18 01:07:51;;;;;;;22.02;7.38;;;8.60;99.90;;;;;;5011350;28;20036;-88
2021/12/18 01:12:45;;;;;;;27.00;8.18;;;8.60;99.90;;;;;;5017585;28;20033;-88
2021/12/18 01:15:19;;;;;;;22.58;9.07;;;8.70;99.90;;;;;;5015508;28;20038;-88
2021/12/18 01:23:14;;;;;;;21.23;7.97;;;8.70;99.90;;;;;;5017367;28;20041;-88
2021/12/18 01:25:40;;;;;;;22.35;7.40;;;8.70;99.90;;;;;;5015478;28;20026;-88
2021/12/18 01:28:06;;;;;;;20.42;8.05;;;8.70;99.90;;;;;;5014138;28;20029;-88
2021/12/18 01:30:32;;;;;;;19.95;8.02;;;8.60;99.90;;;;;;5015190;28;20068;-88
2021/12/18 01:32:58;;;;;;;24.05;8.48;;;8.60;99.90;;;;;;5012534;28;20034;-88
2021/12/18 01:35:23;;;;;;;21.20;8.98;;;8.60;99.90;;;;;;5012470;28;20022;-87
2021/12/18 01:37:50;;;;;;;22.35;8.27;;;8.60;99.90;;;;;;5008607;28;20150;-88
2021/12/18 01:40:17;;;;;;;19.48;6.95;;;8.60;99.90;;;;;;5005453;28;20048;-88
2021/12/18 01:45:29;;;;;;;19.75;6.78;;;8.60;99.90;;;;;;5019308;28;20017;-88
2021/12/18 01:53:23;;;;;;;23.58;7.32;;;8.60;99.90;;;;;;5014857;28;20556;-88
2021/12/18 01:55:50;;;;;;;17.45;6.68;;;8.60;99.90;;;;;;5012599;28;20025;-88
2021/12/18 01:58:22;;;;;;;16.92;6.57;;;8.60;99.90;;;;;;5014939;28;20026;-88
2021/12/18 02:00:50;;;;;;;14.98;6.22;;;8.50;99.90;;;;;;5014406;28;20096;-88
2021/12/18 02:03:15;;;;;;;13.55;5.75;;;8.60;99.90;;;;;;5014773;28;20034;-88
2021/12/18 02:05:41;;;;;;;17.15;7.38;;;8.50;99.90;;;;;;5006036;28;20023;-87
2021/12/18 02:08:07;;;;;;;15.73;6.50;;;8.50;99.90;;;;;;5011663;28;20427;-88
2021/12/18 02:10:45;;;;;;;12.63;5.97;;;8.40;99.90;;;;;;5013321;28;20474;-88
2021/12/18 02:21:43;;;;;;;11.85;6.22;;;8.50;99.90;;;;;;4993899;28;20061;-87
2021/12/18 02:24:09;;;;;;;9.65;5.72;;;8.50;99.90;;;;;;5002666;28;20042;-87
2021/12/18 02:26:34;;;;;;;10.23;5.13;;;8.40;99.90;;;;;;5013545;28;20390;-88
2021/12/18 02:29:03;;;;;;;10.20;5.07;;;8.50;99.90;;;;;;5012200;28;20033;-87
2021/12/18 02:31:29;;;;;;;10.23;4.63;;;8.50;99.90;;;;;;4995649;28;20026;-87
2021/12/18 02:33:55;;;;;;;12.43;5.50;;;8.50;99.90;;;;;;5008850;28;20045;-87
2021/12/18 02:36:25;;;;;;;9.93;4.43;;;8.50;99.90;;;;;;5010863;28;20034;-87
2021/12/18 02:43:50;;;;;;;14.07;5.90;;;8.50;99.90;;;;;;5015803;28;20065;-88
2021/12/18 02:46:20;;;;;;;13.68;5.43;;;8.60;99.90;;;;;;5012390;28;20030;-88
2021/12/18 02:48:49;;;;;;;11.95;6.20;;;8.60;99.90;;;;;;5013107;28;20032;-88
2021/12/18 02:51:16;;;;;;;13.93;6.00;;;8.60;99.90;;;;;;5013451;28;20597;-88
2021/12/18 02:53:48;;;;;;;16.27;6.30;;;8.60;99.90;;;;;;5013576;28;20038;-88
2021/12/18 02:56:15;;;;;;;13.70;5.93;;;8.60;99.90;;;;;;5011039;28;20026;-88
2021/12/18 02:58:46;;;;;;;13.70;6.00;;;8.60;99.90;;;;;;5014660;28;20030;-88
2021/12/18 03:01:15;;;;;;;16.23;5.78;;;8.60;99.90;;;;;;5005986;28;20038;-88
2021/12/18 03:03:43;;;;;;;15.75;5.82;;;8.60;99.90;;;;;;5013416;28;20045;-87
2021/12/18 03:08:51;;;;;;;13.02;4.95;;;8.60;99.90;;;;;;5015405;28;20057;-87
2021/12/18 03:25:05;;;;;;;11.40;4.50;;;8.50;99.90;;;;;;5013137;28;20061;-88
2021/12/18 03:27:31;;;;;;;15.35;5.68;;;8.50;99.90;;;;;;5013155;28;20060;-88
2021/12/18 03:29:57;;;;;;;12.98;5.47;;;8.50;99.90;;;;;;5012616;28;20470;-88
2021/12/18 03:32:23;;;;;;;11.88;5.07;;;8.50;99.90;;;;;;5013770;28;20044;-87
2021/12/18 03:34:50;;;;;;;14.77;5.47;;;8.40;99.90;;;;;;5011904;28;20570;-87
2021/12/18 03:37:16;;;;;;;14.32;5.35;;;8.40;99.90;;;;;;5009505;28;20394;-88
2021/12/18 03:39:43;;;;;;;11.73;5.70;;;8.40;99.90;;;;;;5012603;28;20096;-88
2021/12/18 03:42:08;;;;;;;13.93;5.63;;;8.40;99.90;;;;;;5014149;28;20057;-88
2021/12/18 03:44:35;;;;;;;14.43;6.10;;;8.40;99.90;;;;;;5010899;28;20037;-88
2021/12/18 03:47:01;;;;;;;14.50;6.57;;;8.40;99.90;;;;;;5002069;28;20057;-88
2021/12/18 03:49:26;;;;;;;15.32;6.90;;;8.40;99.90;;;;;;5003181;28;20057;-88
2021/12/18 03:51:52;;;;;;;14.40;6.65;;;8.40;99.90;;;;;;5012531;28;20053;-87
2021/12/18 03:54:18;;;;;;;15.10;6.47;;;8.40;99.90;;;;;;5008987;28;20402;-89
2021/12/18 03:56:43;;;;;;;13.95;6.28;;;8.40;99.90;;;;;;4999414;28;20049;-88
2021/12/18 03:59:09;;;;;;;14.70;6.03;;;8.40;99.90;;;;;;5009713;28;20120;-87
2021/12/18 04:01:34;;;;;;;11.25;5.32;;;8.40;99.90;;;;;;5007537;28;20054;-87
2021/12/18 04:04:00;;;;;;;13.35;4.82;;;8.40;99.90;;;;;;4994364;28;20049;-88
2021/12/18 04:06:26;;;;;;;12.82;4.90;;;8.40;99.90;;;;;;5007243;28;20018;-87
2021/12/18 04:08:51;;;;;;;12.82;5.35;;;8.40;99.90;;;;;;5013325;28;20037;-88
2021/12/18 04:11:17;;;;;;;15.65;6.03;;;8.30;99.90;;;;;;5010101;28;20014;-88
2021/12/18 04:13:45;;;;;;;13.38;5.72;;;8.30;99.90;;;;;;5009325;28;20080;-87
2021/12/18 04:16:12;;;;;;;15.68;6.28;;;8.30;99.90;;;;;;5007119;28;20030;-87
2021/12/18 04:18:37;;;;;;;13.15;5.25;;;8.30;99.90;;;;;;5009545;28;20037;-88
2021/12/18 04:21:03;;;;;;;14.30;6.13;;;8.30;99.90;;;;;;5011853;28;20042;-88
2021/12/18 04:23:28;;;;;;;15.70;5.85;;;8.30;99.90;;;;;;5017300;28;20033;-87
2021/12/18 04:25:55;;;;;;;15.20;6.10;;;8.30;99.90;;;;;;5009484;28;20065;-87
2021/12/18 04:28:22;;;;;;;14.15;4.80;;;8.30;99.90;;;;;;5009521;28;20041;-87
2021/12/18 04:30:48;;;;;;;13.55;5.03;;;8.30;99.90;;;;;;5012442;28;20101;-87
2021/12/18 04:33:13;;;;;;;15.30;6.05;;;8.30;99.90;;;;;;5013396;28;20052;-87
2021/12/18 04:35:39;;;;;;;17.42;5.70;;;8.30;99.90;;;;;;5011787;28;20072;-88
2021/12/18 04:38:05;;;;;;;18.25;6.78;;;8.30;99.90;;;;;;5012430;28;20048;-87
2021/12/18 04:40:31;;;;;;;18.45;6.22;;;8.30;99.90;;;;;;5002262;28;20478;-88
2021/12/18 04:42:57;;;;;;;18.73;6.82;;;8.30;99.90;;;;;;5011427;28;20049;-87
2021/12/18 04:45:24;;;;;;;19.35;6.72;;;8.30;99.90;;;;;;5015274;28;20021;-86
2021/12/18 04:47:50;;;;;;;18.58;6.07;;;8.40;99.90;;;;;;5016442;28;20030;-86
2021/12/18 04:50:15;;;;;;;21.92;7.82;;;8.30;99.90;;;;;;5013809;28;20505;-86
2021/12/18 04:52:41;;;;;;;19.27;6.80;;;8.30;99.90;;;;;;5016730;28;20041;-86
2021/12/18 04:55:07;;;;;;;17.75;6.53;;;8.30;99.90;;;;;;5016376;28;20028;-86
2021/12/18 04:57:32;;;;;;;25.15;8.20;;;8.30;99.90;;;;;;5016522;28;20113;-88
2021/12/18 04:59:59;;;;;;;23.50;7.38;;;8.30;99.90;;;;;;5018444;28;20034;-88
2021/12/18 05:02:34;;;;;;;20.73;7.47;;;8.30;99.90;;;;;;5016859;28;20036;-87
2021/12/18 05:05:00;;;;;;;25.40;8.30;;;8.30;99.90;;;;;;4998704;28;20026;-87
2021/12/18 05:07:27;;;;;;;22.40;7.53;;;8.30;99.90;;;;;;5015798;28;20076;-87
2021/12/18 05:09:53;;;;;;;24.85;8.02;;;8.20;99.90;;;;;;5015056;28;20112;-87
2021/12/18 05:12:19;;;;;;;23.90;7.65;;;8.20;99.90;;;;;;5014729;28;20094;-87
2021/12/18 05:14:45;;;;;;;27.52;7.55;;;8.20;99.90;;;;;;5012858;28;21298;-87
2021/12/18 05:17:10;;;;;;;24.95;7.13;;;8.20;99.90;;;;;;5014297;28;20037;-86
2021/12/18 05:19:36;;;;;;;16.83;6.20;;;8.20;99.90;;;;;;5013914;28;20434;-87
2021/12/18 05:22:03;;;;;;;15.75;5.57;;;8.20;99.90;;;;;;5024355;28;20074;-87
2021/12/18 05:24:29;;;;;;;16.58;5.65;;;8.20;99.90;;;;;;5014583;28;20108;-87
2021/12/18 05:26:54;;;;;;;15.23;4.75;;;8.20;99.90;;;;;;5015386;28;20467;-86
2021/12/18 05:29:21;;;;;;;13.10;3.97;;;8.10;99.90;;;;;;5015775;28;20450;-87
2021/12/18 05:31:46;;;;;;;12.52;3.85;;;8.20;99.90;;;;;;5015876;28;20466;-87
2021/12/18 05:34:20;;;;;;;13.48;5.05;;;8.20;99.90;;;;;;5015679;28;20033;-87
2021/12/18 05:39:25;;;;;;;11.82;3.78;;;8.20;99.90;;;;;;5011559;28;20047;-88
2021/12/18 05:41:51;;;;;;;13.82;4.07;;;8.20;99.90;;;;;;5008993;28;20034;-88
2021/12/18 05:44:24;;;;;;;14.73;4.40;;;8.20;99.90;;;;;;5002251;28;20121;-88
2021/12/18 05:46:50;;;;;;;13.35;3.85;;;8.20;99.90;;;;;;5009658;28;20120;-88
2021/12/18 05:49:15;;;;;;;12.70;3.88;;;8.20;99.90;;;;;;5009265;28;20026;-88
2021/12/18 05:51:42;;;;;;;14.38;4.03;;;8.20;99.90;;;;;;5003180;28;20041;-86
2021/12/18 05:54:08;;;;;;;12.73;3.83;;;8.20;99.90;;;;;;5009981;28;20084;-88
2021/12/18 05:56:34;;;;;;;14.25;4.43;;;8.20;99.90;;;;;;5006533;28;20023;-88
2021/12/18 05:59:00;;;;;;;11.43;3.60;;;8.20;99.90;;;;;;5017081;28;20104;-87
2021/12/18 06:01:26;;;;;;;18.15;4.47;;;8.20;99.90;;;;;;5013667;28;20041;-88
2021/12/18 06:03:52;;;;;;;18.63;5.28;;;8.20;99.90;;;;;;5014613;28;20038;-88
2021/12/18 06:06:18;;;;;;;13.10;3.95;;;8.10;99.90;;;;;;5005497;28;20570;-88
2021/12/18 06:08:44;;;;;;;13.20;3.30;;;8.20;99.90;;;;;;5016808;28;20062;-88
2021/12/18 06:11:15;;;;;;;11.68;3.35;;;8.20;99.90;;;;;;5014045;28;20094;-88
2021/12/18 06:13:46;;;;;;;14.83;3.93;;;8.20;99.90;;;;;;5011597;28;20057;-88
2021/12/18 06:16:12;;;;;;;15.77;3.97;;;8.10;99.90;;;;;;5009900;28;20069;-88
2021/12/18 06:18:44;;;;;;;17.42;4.88;;;8.10;99.90;;;;;;5012378;28;21818;-88
2021/12/18 06:21:12;;;;;;;15.02;3.55;;;8.10;99.90;;;;;;5004327;28;20103;-89
2021/12/18 06:23:39;;;;;;;13.48;3.83;;;8.10;99.90;;;;;;5014770;28;20104;-89
2021/12/18 06:26:04;;;;;;;17.75;4.47;;;8.10;99.90;;;;;;5011093;28;20049;-89
2021/12/18 06:28:30;;;;;;;17.70;4.43;;;8.10;99.90;;;;;;5018362;28;20088;-89
2021/12/18 06:30:56;;;;;;;23.83;4.43;;;8.10;99.90;;;;;;5010523;28;20502;-88
2021/12/18 06:33:21;;;;;;;24.77;5.70;;;8.10;99.90;;;;;;5005681;28;20034;-89
2021/12/18 06:35:47;;;;;;;21.55;5.75;;;8.10;99.90;;;;;;5011814;28;20025;-89
2021/12/18 06:38:13;;;;;;;20.90;5.63;;;8.10;99.90;;;;;;5011404;28;20478;-88
2021/12/18 06:40:38;;;;;;;24.50;5.45;;;8.00;99.90;;;;;;5011115;28;20478;-88
2021/12/18 06:43:04;;;;;;;28.98;5.97;;;8.10;99.90;;;;;;5012723;28;20040;-89
2021/12/18 06:45:29;;;;;;;25.80;6.03;;;8.10;99.90;;;;;;5008158;28;20030;-88
2021/12/18 06:47:55;;;;;;;27.10;5.45;;;8.10;99.90;;;;;;5013160;28;20021;-89
2021/12/18 06:50:21;;;;;;;21.33;5.57;;;8.00;99.90;;;;;;5008819;28;20080;-89
2021/12/18 06:52:47;;;;;;;26.45;5.85;;;8.00;99.90;;;;;;5012286;28;20068;-89
2021/12/18 06:55:12;;;;;;;25.25;5.80;;;8.00;99.90;;;;;;5010480;28;20438;-89
2021/12/18 06:57:38;;;;;;;26.38;4.75;;;8.00;99.90;;;;;;5014630;28;20034;-90
2021/12/18 07:00:07;;;;;;;20.17;5.03;;;8.00;99.90;;;;;;5008771;28;20058;-89
2021/12/18 07:02:32;;;;;;;21.83;4.93;;;7.90;99.90;;;;;;5009768;28;20060;-89
2021/12/18 07:04:58;;;;;;;21.30;5.55;;;7.90;99.90;;;;;;5014087;28;20034;-89
2021/12/18 07:07:24;;;;;;;22.05;4.43;;;7.90;99.90;;;;;;5013867;28;20029;-89
2021/12/18 07:09:49;;;;;;;15.68;4.43;;;7.80;99.90;;;;;;5013213;28;20034;-89
2021/12/18 07:12:15;;;;;;;19.80;5.10;;;7.80;99.90;;;;;;5015757;28;20030;-89
2021/12/18 07:14:41;;;;;;;14.00;3.63;;;7.80;99.90;;;;;;5015626;28;20029;-89
2021/12/18 07:17:06;;;;;;;13.55;4.38;;;7.80;99.90;;;;;;5017001;28;20033;-89
2021/12/18 07:19:32;;;;;;;11.85;3.08;;;7.90;99.90;;;;;;5003671;28;20088;-88
2021/12/18 07:21:58;;;;;;;14.73;3.70;;;7.90;99.90;;;;;;5009153;28;20053;-90
2021/12/18 07:24:23;;;;;;;15.45;3.47;;;7.80;99.90;;;;;;5016738;28;20042;-88
2021/12/18 07:26:51;;;;;;;17.08;4.38;;;7.80;99.90;;;;;;5014817;28;20025;-88
2021/12/18 07:29:17;;;;;;;13.15;3.42;;;7.70;99.90;;;;;;5012717;28;20487;-89
2021/12/18 07:31:42;;;;;;;16.67;3.60;;;7.80;99.90;;;;;;5015233;28;20037;-89
2021/12/18 07:34:08;;;;;;;14.52;3.47;;;7.80;99.90;;;;;;5015979;28;20360;-89
2021/12/18 07:36:33;;;;;;;21.95;4.18;;;7.80;99.90;;;;;;5015322;28;20030;-88
2021/12/18 07:38:59;;;;;;;16.38;3.78;;;7.80;99.90;;;;;;5013602;28;20033;-89
2021/12/18 07:41:25;;;;;;;17.67;5.18;;;7.80;99.90;;;;;;5014507;28;20021;-88
2021/12/18 07:43:50;;;;;;;11.77;3.20;;;7.80;99.90;;;;;;5013965;28;20044;-89
2021/12/18 07:46:16;;;;;;;16.38;3.72;;;7.80;99.90;;;;;;5010792;28;20080;-88
2021/12/18 07:48:42;;;;;;;13.60;3.03;;;7.80;99.90;;;;;;5009512;28;20030;-89
2021/12/18 07:51:07;;;;;;;12.70;3.25;;;7.80;99.90;;;;;;5014382;28;20105;-88
2021/12/18 07:53:33;;;;;;;16.17;3.67;;;7.80;99.90;;;;;;5015688;28;20478;-88
2021/12/18 07:55:59;;;;;;;12.48;2.53;;;7.80;99.90;;;;;;5000942;28;20029;-89
2021/12/18 07:58:25;;;;;;;35.03;4.43;;;7.80;99.90;;;;;;5010935;28;20375;-89
2021/12/18 08:00:50;;;;;;;10.30;2.28;;;7.80;99.90;;;;;;5010266;28;20426;-89
2021/12/18 08:03:16;;;;;;;10.65;2.40;;;7.80;99.90;;;;;;5009028;28;20068;-89
2021/12/18 08:05:42;;;;;;;9.05;2.20;;;7.70;99.90;;;;;;5013915;28;20018;-88
2021/12/18 08:08:07;;;;;;;12.95;2.30;;;7.70;99.90;;;;;;5015321;28;20068;-89
2021/12/18 08:10:33;;;;;;;9.52;2.15;;;7.70;99.90;;;;;;5015082;28;20022;-89
2021/12/18 08:12:58;;;;;;;9.15;2.17;;;7.70;99.90;;;;;;5026936;28;20040;-89
2021/12/18 08:15:24;;;;;;;7.05;1.75;;;7.70;99.90;;;;;;5014137;28;20041;-89
2021/12/18 08:17:49;;;;;;;10.05;2.30;;;7.60;99.90;;;;;;5013196;28;20034;-89
2021/12/18 08:20:15;;;;;;;9.48;1.80;;;7.60;99.90;;;;;;5013859;28;20077;-90
2021/12/18 08:22:41;;;;;;;9.13;2.03;;;7.60;99.90;;;;;;5004513;28;20038;-89
2021/12/18 08:25:07;;;;;;;7.13;1.90;;;7.50;99.90;;;;;;5012929;28;20038;-88
2021/12/18 08:27:33;;;;;;;6.18;1.85;;;7.60;99.90;;;;;;5012906;28;20101;-89
2021/12/18 08:29:59;;;;;;;8.50;2.15;;;7.50;99.90;;;;;;5016975;28;20050;-88
2021/12/18 08:32:24;;;;;;;6.18;1.73;;;7.50;99.90;;;;;;5012519;28;20030;-89
2021/12/18 08:34:51;;;;;;;8.32;2.20;;;7.50;99.90;;;;;;5015308;28;20076;-89
2021/12/18 08:37:19;;;;;;;9.38;2.03;;;7.40;99.90;;;;;;5013150;28;20050;-88
2021/12/18 08:39:44;;;;;;;8.35;2.05;;;7.50;99.90;;;;;;5013187;28;20462;-88
2021/12/18 08:42:10;;;;;;;7.32;1.65;;;7.50;99.90;;;;;;5010712;28;20034;-89
2021/12/18 08:44:35;;;;;;;6.50;1.95;;;7.50;99.90;;;;;;5008574;28;20030;-88
2021/12/18 08:47:02;;;;;;;7.80;1.70;;;7.50;99.90;;;;;;5008979;28;20018;-88
2021/12/18 08:49:28;;;;;;;7.25;1.90;;;7.50;99.90;;;;;;5006986;28;20038;-88
2021/12/18 08:51:55;;;;;;;6.13;1.98;;;7.50;99.90;;;;;;5005163;28;20086;-89
2021/12/18 08:54:21;;;;;;;7.82;2.10;;;7.50;99.90;;;;;;5006570;28;20030;-91
2021/12/18 08:56:47;;;;;;;5.43;1.67;;;7.50;99.90;;;;;;5023843;28;20042;-89
2021/12/18 08:59:13;;;;;;;6.80;1.90;;;7.50;99.90;;;;;;5008698;28;20030;-91
2021/12/18 09:01:39;;;;;;;8.02;2.03;;;7.50;99.90;;;;;;5009900;28;20021;-88
2021/12/18 09:04:05;;;;;;;7.53;2.10;;;7.50;99.90;;;;;;5012981;28;20037;-90
2021/12/18 09:06:30;;;;;;;8.38;2.70;;;7.50;99.90;;;;;;5011851;28;20038;-90
2021/12/18 09:08:56;;;;;;;8.13;1.90;;;7.50;99.90;;;;;;5012217;28;20072;-89
2021/12/18 09:11:22;;;;;;;10.32;2.38;;;7.50;99.90;;;;;;5013549;28;20034;-88
2021/12/18 09:13:48;;;;;;;20.63;3.15;;;7.50;99.90;;;;;;5012992;28;20158;-88
2021/12/18 09:16:14;;;;;;;10.18;2.47;;;7.50;99.90;;;;;;5008161;28;20026;-89
2021/12/18 09:18:39;;;;;;;5.97;1.45;;;7.50;99.90;;;;;;5009550;28;20037;-91
2021/12/18 09:21:05;;;;;;;4.72;1.17;;;7.50;99.90;;;;;;5008636;28;20046;-89
2021/12/18 09:23:31;;;;;;;4.22;1.23;;;7.50;99.90;;;;;;5011450;28;20038;-88
2021/12/18 09:25:57;;;;;;;4.60;0.80;;;7.40;99.90;;;;;;5006112;28;20026;-89
2021/12/18 09:28:23;;;;;;;4.90;1.27;;;7.50;99.90;;;;;;5009068;28;20061;-90
2021/12/18 09:30:48;;;;;;;4.65;1.23;;;7.50;99.90;;;;;;5014290;28;20042;-89
2021/12/18 09:33:16;;;;;;;4.20;1.15;;;7.50;99.90;;;;;;5015238;28;20038;-88
2021/12/18 09:35:42;;;;;;;6.00;0.95;;;7.50;99.90;;;;;;5012424;28;20026;-89
2021/12/18 09:38:08;;;;;;;3.63;0.60;;;7.50;99.90;;;;;;5015044;28;20033;-90
2021/12/18 09:40:34;;;;;;;3.65;0.88;;;7.50;99.90;;;;;;5010283;28;20486;-90
2021/12/18 09:42:59;;;;;;;4.05;0.70;;;7.50;99.90;;;;;;5016179;28;20445;-89
2021/12/18 09:45:26;;;;;;;2.78;0.60;;;7.40;99.90;;;;;;5016013;28;20026;-90
2021/12/18 09:47:52;;;;;;;5.20;0.73;;;7.40;99.90;;;;;;5015800;28;20037;-88
2021/12/18 09:50:21;;;;;;;3.15;0.93;;;7.30;99.90;;;;;;5014537;28;20022;-89
2021/12/18 09:52:46;;;;;;;5.00;0.88;;;7.40;99.90;;;;;;5011386;28;20387;-90
2021/12/18 09:55:13;;;;;;;4.00;1.10;;;7.30;99.90;;;;;;5007604;28;20022;-89
2021/12/18 09:57:39;;;;;;;4.60;1.40;;;7.40;99.90;;;;;;5008910;28;20030;-89
2021/12/18 10:00:17;;;;;;;6.63;1.38;;;7.40;99.90;;;;;;5012361;28;20105;-90
2021/12/18 10:02:43;;;;;;;4.07;1.25;;;7.40;99.90;;;;;;5016221;28;20034;-89
2021/12/18 10:05:41;;;;;;;4.47;1.35;;;7.40;99.90;;;;;;5016258;28;20088;-89
2021/12/18 10:08:08;;;;;;;2.80;1.00;;;7.40;99.90;;;;;;4985213;28;20046;-89
2021/12/18 10:10:34;;;;;;;4.15;1.13;;;7.40;99.90;;;;;;5016296;28;20474;-87
2021/12/18 10:13:09;;;;;;;2.75;0.90;;;7.40;99.90;;;;;;5015426;28;20048;-88
2021/12/18 10:15:37;;;;;;;2.90;0.98;;;7.50;99.90;;;;;;5015747;28;20029;-88
2021/12/18 10:18:08;;;;;;;2.38;0.70;;;7.50;99.90;;;;;;5015929;28;20061;-88
2021/12/18 10:20:34;;;;;;;2.45;0.70;;;7.60;99.90;;;;;;5014092;28;20045;-88
2021/12/18 10:23:04;;;;;;;5.07;0.68;;;7.50;99.90;;;;;;5013246;28;20037;-89
2021/12/18 10:25:36;;;;;;;4.28;0.90;;;7.60;99.90;;;;;;5015605;28;20033;-90
2021/12/18 10:28:17;;;;;;;3.88;0.77;;;7.60;99.90;;;;;;5012907;28;20061;-89
2021/12/18 10:30:46;;;;;;;4.05;0.93;;;7.60;99.90;;;;;;5009123;28;20505;-88
2021/12/18 10:33:13;;;;;;;1.60;0.60;;;7.70;99.90;;;;;;5015998;28;20022;-89
2021/12/18 10:35:50;;;;;;;3.85;1.17;;;7.70;99.90;;;;;;5009041;28;20050;-88
2021/12/18 10:38:34;;;;;;;3.30;0.85;;;7.80;99.90;;;;;;5010114;28;20105;-90
2021/12/18 10:41:00;;;;;;;3.38;0.90;;;7.80;99.90;;;;;;5022140;28;20049;-89
2021/12/18 10:43:26;;;;;;;3.95;1.08;;;7.80;99.90;;;;;;5018029;28;20030;-89
2021/12/18 10:45:51;;;;;;;4.35;1.00;;;7.70;99.90;;;;;;5010479;28;20056;-91
2021/12/18 10:48:25;;;;;;;3.33;1.10;;;7.70;99.90;;;;;;5017436;28;20029;-90
2021/12/18 10:50:53;;;;;;;3.55;0.88;;;7.70;99.90;;;;;;5017417;28;20033;-88
2021/12/18 10:53:29;;;;;;;2.90;0.70;;;7.80;99.90;;;;;;5015863;28;20034;-89
2021/12/18 10:55:58;;;;;;;3.25;1.00;;;7.80;99.90;;;;;;5010923;28;20026;-90
2021/12/18 10:58:35;;;;;;;3.15;0.80;;;7.80;99.90;;;;;;5012394;28;20039;-87
2021/12/18 11:01:03;;;;;;;2.92;1.45;;;7.80;99.90;;;;;;5027968;28;20025;-88
2021/12/18 11:03:30;;;;;;;2.50;1.00;;;7.80;99.90;;;;;;5013053;28;20037;-88
2021/12/18 11:06:13;;;;;;;4.38;1.30;;;7.80;99.90;;;;;;5014889;28;20046;-89
2021/12/18 11:09:04;;;;;;;3.72;1.73;;;7.80;99.90;;;;;;5012193;28;20086;-89
2021/12/18 11:14:12;;;;;;;3.90;1.83;;;7.70;99.90;;;;;;5017719;28;20025;-88
2021/12/18 11:16:39;;;;;;;4.90;2.38;;;7.70;99.90;;;;;;5015651;28;20037;-90
2021/12/18 11:19:13;;;;;;;4.35;2.30;;;7.60;99.90;;;;;;5008102;28;20022;-88
2021/12/18 11:21:41;;;;;;;4.93;2.28;;;7.60;99.90;;;;;;5014770;28;20046;-89
2021/12/18 11:24:08;;;;;;;4.43;1.95;;;7.60;99.90;;;;;;5014040;28;20567;-89
2021/12/18 11:26:49;;;;;;;3.95;2.20;;;7.60;99.90;;;;;;5010368;28;20025;-89
2021/12/18 11:29:34;;;;;;;4.88;2.25;;;7.60;99.90;;;;;;5013546;28;20025;-89
2021/12/18 11:32:00;;;;;;;4.63;2.25;;;7.60;99.90;;;;;;5010580;28;20117;-89
2021/12/18 11:34:26;;;;;;;5.40;2.20;;;7.60;99.90;;;;;;5014278;28;20032;-88
2021/12/18 11:36:53;;;;;;;3.35;1.48;;;7.60;99.90;;;;;;5014560;28;20025;-89
2021/12/18 11:39:22;;;;;;;3.28;1.80;;;7.60;99.90;;;;;;5009578;28;20448;-88
2021/12/18 11:41:51;;;;;;;6.00;1.60;;;7.50;99.90;;;;;;5009185;28;20060;-88
2021/12/18 11:44:32;;;;;;;3.47;1.80;;;7.40;99.90;;;;;;4998948;28;20064;-89
2021/12/18 11:47:19;;;;;;;2.20;0.70;;;7.40;99.90;;;;;;5004837;28;20026;-89
2021/12/18 11:49:44;;;;;;;1.70;0.60;;;7.40;99.90;;;;;;5007815;28;20030;-89
2021/12/18 11:52:10;;;;;;;1.48;0.50;;;7.40;99.90;;;;;;5006448;28;20176;-89
2021/12/18 11:54:58;;;;;;;1.00;0.50;;;7.40;99.90;;;;;;5002588;28;20021;-89
2021/12/18 11:57:49;;;;;;;0.90;0.40;;;7.50;99.90;;;;;;5019684;28;20048;-89
2021/12/18 12:00:17;;;;;;;0.90;0.50;;;7.60;99.90;;;;;;5016267;28;20030;-89
2021/12/18 12:02:49;;;;;;;1.05;0.40;;;7.60;99.90;;;;;;4996522;28;20089;-89
2021/12/18 12:05:18;;;;;;;0.88;0.40;;;7.60;99.90;;;;;;5009116;28;20064;-90
2021/12/18 12:07:45;;;;;;;0.90;0.30;;;7.70;99.90;;;;;;5007127;28;20026;-89
2021/12/18 12:10:35;;;;;;;1.02;0.40;;;7.80;99.90;;;;;;5005359;28;20041;-89
2021/12/18 12:13:00;;;;;;;1.58;0.70;;;7.90;99.90;;;;;;5006453;28;20034;-89
2021/12/18 12:15:27;;;;;;;1.30;0.65;;;7.90;99.90;;;;;;5027829;28;20441;-89
2021/12/18 12:18:04;;;;;;;1.45;0.60;;;7.70;99.90;;;;;;5012068;28;20478;-89
2021/12/18 12:20:46;;;;;;;1.33;0.60;;;7.70;99.90;;;;;;5001946;28;20132;-89
2021/12/18 12:23:13;;;;;;;2.10;0.60;;;7.60;99.90;;;;;;5012323;28;20037;-88
2021/12/18 12:25:42;;;;;;;1.10;0.43;;;7.70;99.90;;;;;;5011966;28;20076;-89
2021/12/18 12:28:27;;;;;;;1.67;0.50;;;7.70;99.90;;;;;;5010899;28;20040;-89
2021/12/18 12:30:56;;;;;;;1.10;0.52;;;7.70;99.90;;;;;;5010441;28;20022;-88
2021/12/18 12:33:23;;;;;;;1.30;0.60;;;7.70;99.90;;;;;;5010213;28;20030;-87
2021/12/18 12:36:15;;;;;;;1.40;0.60;;;7.70;99.90;;;;;;5004561;28;20026;-87
2021/12/18 12:38:53;;;;;;;1.20;0.40;;;7.60;99.90;;;;;;5001635;28;20064;-88
2021/12/18 12:41:32;;;;;;;1.98;0.70;;;7.70;99.90;;;;;;5018883;28;20108;-89
2021/12/18 12:44:03;;;;;;;3.00;0.90;;;7.70;99.90;;;;;;5003234;28;20045;-88
2021/12/18 12:46:29;;;;;;;3.85;1.40;;;7.60;99.90;;;;;;5003889;28;20030;-88
2021/12/18 12:49:01;;;;;;;2.33;1.00;;;7.50;99.90;;;;;;5011972;28;20026;-89
2021/12/18 12:51:59;;;;;;;2.80;1.00;;;7.50;99.90;;;;;;5012404;28;20026;-89
2021/12/18 12:54:51;;;;;;;1.73;0.75;;;7.50;99.90;;;;;;5010610;28;20034;-89
2021/12/18 12:57:30;;;;;;;2.22;0.95;;;7.50;99.90;;;;;;5006755;28;20022;-90
2021/12/18 12:59:58;;;;;;;1.73;0.60;;;7.50;99.90;;;;;;5011728;28;20120;-90
2021/12/18 13:02:36;;;;;;;1.55;0.52;;;7.50;99.90;;;;;;5010887;28;20100;-87
2021/12/18 13:05:13;;;;;;;1.40;0.50;;;7.60;99.90;;;;;;5013521;28;20033;-87
2021/12/18 13:07:53;;;;;;;1.35;0.60;;;7.50;99.90;;;;;;5009219;28;20033;-88
2021/12/18 13:10:23;;;;;;;1.52;0.60;;;7.50;99.90;;;;;;5006100;28;20022;-88
2021/12/18 13:12:57;;;;;;;1.42;0.50;;;7.40;99.90;;;;;;5012985;28;20022;-87
2021/12/18 13:15:24;;;;;;;2.53;0.98;;;7.50;99.90;;;;;;5015057;28;20033;-88
2021/12/18 13:18:05;;;;;;;2.53;0.52;;;7.50;99.90;;;;;;5010333;28;20114;-87
2021/12/18 13:21:00;;;;;;;1.20;0.50;;;7.60;99.90;;;;;;5007651;28;20041;-86
2021/12/18 13:23:44;;;;;;;1.30;0.50;;;7.60;99.90;;;;;;5012644;28;20129;-88
2021/12/18 13:26:44;;;;;;;1.00;0.40;;;7.60;99.90;;;;;;5013319;28;20184;-88
2021/12/18 13:29:13;;;;;;;1.75;0.60;;;7.50;99.90;;;;;;4989505;28;20038;-88
2021/12/18 13:31:50;;;;;;;1.02;0.40;;;7.50;99.90;;;;;;5007308;28;20041;-86
2021/12/18 13:34:20;;;;;;;1.90;0.60;;;7.50;99.90;;;;;;5004161;28;20037;-88
2021/12/18 13:36:48;;;;;;;1.15;0.45;;;7.50;99.90;;;;;;5010684;28;20026;-88
2021/12/18 13:39:38;;;;;;;2.75;0.60;;;7.40;99.90;;;;;;5010013;28;20033;-88
2021/12/18 13:42:22;;;;;;;1.30;0.43;;;7.40;99.90;;;;;;5008449;28;20487;-89
2021/12/18 13:44:52;;;;;;;1.13;0.40;;;7.40;99.90;;;;;;5001462;28;20137;-88
2021/12/18 13:47:28;;;;;;;1.27;0.47;;;7.40;99.90;;;;;;4996196;28;20019;-88
2021/12/18 13:50:11;;;;;;;1.40;0.50;;;7.40;99.90;;;;;;5002029;28;20042;-86